Terminal Aerodrome Forecast
Issued by NWS Cleveland, OH

Home | Current Version | Previous Version | Graphics & Text | Print | Product List | Glossary Off
Versions: 1 2 3 4 5 6 7 8 9 10 11 12 13 14 15 16 17 18 19 20 21 22 23 24

000
FTUS41 KCLE 121743
TAFYNG
TAF
KYNG 121743Z 1218/1318 31012G20KT 6SM -SHSN BLSN OVC025
      TEMPO 1218/1220 30012KT 2SM -SN BKN018
     FM122000 30012G20KT 4SM -SHSN OVC020
      TEMPO 1220/1223 30015KT 1SM -SHSN OVC012
     FM130300 29015G25KT 6SM -SHSN BKN025
     FM130700 28012KT P6SM BKN025
     FM131400 24008KT P6SM BKN030=

USA.gov is the U.S. government's official web portal to all federal, state and local government web resources and services.